createdAt,value
2022-12-29T00:01:05.395Z,10.60
2022-12-29T00:03:33.672Z,10.50
2022-12-29T00:06:03.085Z,10.50
2022-12-29T00:08:41.722Z,10.50
2022-12-29T00:11:10.862Z,10.60
2022-12-29T00:13:57.257Z,10.60
2022-12-29T00:16:27.354Z,10.70
2022-12-29T00:18:55.755Z,10.70
2022-12-29T00:21:43.268Z,10.80
2022-12-29T00:24:32.525Z,10.70
2022-12-29T00:27:29.400Z,10.70
2022-12-29T00:30:15.278Z,10.70
2022-12-29T00:33:02.090Z,10.80
2022-12-29T00:35:32.902Z,10.80
2022-12-29T00:38:25.725Z,10.80
2022-12-29T00:41:11.258Z,10.80
2022-12-29T00:44:11.562Z,10.70
2022-12-29T00:46:40.771Z,10.80
2022-12-29T00:49:29.600Z,10.80
2022-12-29T00:51:59.364Z,10.90
2022-12-29T00:54:27.675Z,10.80
2022-12-29T00:56:55.887Z,10.90
2022-12-29T00:59:27.635Z,11.00
2022-12-29T01:01:57.532Z,11.00
2022-12-29T01:04:28.138Z,11.00
2022-12-29T01:06:56.567Z,11.00
2022-12-29T01:09:42.582Z,11.00
2022-12-29T01:12:12.001Z,11.10
2022-12-29T01:14:40.818Z,11.10
2022-12-29T01:17:09.039Z,11.10
2022-12-29T01:19:38.785Z,11.10
2022-12-29T01:22:07.045Z,11.30
2022-12-29T01:24:35.691Z,11.20
2022-12-29T01:27:03.787Z,11.20
2022-12-29T01:29:31.852Z,11.20
2022-12-29T01:32:00.191Z,11.30
2022-12-29T01:34:28.383Z,11.30
2022-12-29T01:36:57.716Z,11.20
2022-12-29T01:39:25.756Z,11.20
2022-12-29T01:41:53.825Z,11.20
2022-12-29T01:44:48.835Z,11.20
2022-12-29T01:47:22.854Z,11.10
2022-12-29T01:49:51.161Z,11.30
2022-12-29T01:52:20.628Z,11.20
2022-12-29T01:54:53.521Z,11.20
2022-12-29T01:57:26.304Z,11.20
2022-12-29T01:59:58.741Z,11.30
2022-12-29T02:02:30.281Z,11.30
2022-12-29T02:05:05.180Z,11.40
2022-12-29T02:07:34.620Z,11.40
2022-12-29T02:10:04.822Z,11.40
2022-12-29T02:12:32.967Z,11.50
2022-12-29T02:15:03.681Z,11.40
2022-12-29T02:17:46.124Z,11.50
2022-12-29T02:20:41.426Z,11.50
2022-12-29T02:23:32.761Z,11.50
2022-12-29T02:26:18.298Z,11.50
2022-12-29T02:29:18.891Z,11.50
2022-12-29T02:31:54.674Z,11.50
2022-12-29T02:34:31.551Z,11.50
2022-12-29T02:37:07.108Z,11.60
2022-12-29T02:39:42.770Z,11.60
2022-12-29T02:42:19.996Z,11.70
2022-12-29T02:44:57.961Z,11.70
2022-12-29T02:47:36.262Z,11.70
2022-12-29T02:50:08.189Z,11.60
2022-12-29T02:52:39.949Z,11.50
2022-12-29T02:55:08.009Z,11.50
2022-12-29T02:57:37.265Z,11.40
2022-12-29T03:00:08.735Z,11.40
2022-12-29T03:03:10.902Z,11.50
2022-12-29T03:05:57.126Z,11.50
2022-12-29T03:08:32.783Z,11.50
2022-12-29T03:11:04.630Z,11.50
2022-12-29T03:13:58.899Z,11.50
2022-12-29T03:16:36.888Z,11.50
2022-12-29T03:19:12.685Z,11.50
2022-12-29T03:22:02.480Z,11.60
2022-12-29T03:24:33.887Z,11.50
2022-12-29T03:27:05.992Z,11.50
2022-12-29T03:29:39.839Z,11.50
2022-12-29T03:32:11.330Z,11.50
2022-12-29T03:34:41.774Z,11.60
2022-12-29T03:37:13.729Z,11.60
2022-12-29T03:39:43.213Z,11.60
2022-12-29T03:42:15.958Z,11.70
2022-12-29T03:44:46.817Z,11.70
2022-12-29T03:47:16.747Z,11.60
2022-12-29T03:49:46.849Z,11.60
2022-12-29T03:52:15.173Z,11.60
2022-12-29T03:54:43.428Z,11.70
2022-12-29T03:57:12.294Z,11.70
2022-12-29T03:59:40.326Z,11.60
2022-12-29T04:02:08.552Z,11.70
2022-12-29T04:04:36.720Z,11.60
2022-12-29T04:07:06.275Z,11.70
2022-12-29T04:09:34.319Z,11.70
2022-12-29T04:12:02.668Z,11.80
2022-12-29T04:14:30.815Z,11.80
2022-12-29T04:16:58.905Z,11.80
2022-12-29T04:19:27.006Z,11.80
2022-12-29T04:21:54.107Z,11.80
2022-12-29T04:24:23.705Z,12.00
2022-12-29T04:26:52.161Z,11.80
2022-12-29T04:29:20.431Z,11.80
2022-12-29T04:31:48.640Z,11.80
2022-12-29T04:34:17.063Z,11.80
2022-12-29T04:36:46.654Z,11.70
2022-12-29T04:39:14.769Z,11.70
2022-12-29T04:41:44.300Z,11.70
2022-12-29T04:44:12.416Z,11.70
2022-12-29T04:46:40.650Z,11.70
2022-12-29T04:49:09.834Z,11.80
2022-12-29T04:51:38.130Z,11.80
2022-12-29T04:54:06.943Z,11.80
2022-12-29T04:56:35.011Z,11.70
2022-12-29T04:59:04.545Z,11.70
2022-12-29T05:01:32.762Z,11.80
2022-12-29T05:04:01.013Z,11.70
2022-12-29T05:06:29.154Z,11.70
2022-12-29T05:08:57.293Z,11.70
2022-12-29T05:11:25.397Z,11.70
2022-12-29T05:13:53.470Z,11.80
2022-12-29T05:16:23.111Z,11.80
2022-12-29T05:18:51.319Z,11.80
2022-12-29T05:21:19.309Z,11.80
2022-12-29T05:23:47.504Z,11.70
2022-12-29T05:26:15.514Z,11.60
2022-12-29T05:28:43.520Z,11.70
2022-12-29T05:31:11.661Z,11.60
2022-12-29T05:33:41.228Z,11.60
2022-12-29T05:36:10.925Z,11.60
2022-12-29T05:38:39.162Z,11.60
2022-12-29T05:41:07.489Z,11.60
2022-12-29T05:43:35.725Z,11.70
2022-12-29T05:46:04.854Z,11.70
2022-12-29T05:48:37.650Z,11.60
2022-12-29T05:51:07.913Z,11.60
2022-12-29T05:53:36.228Z,11.60
2022-12-29T05:56:04.232Z,11.60
2022-12-29T05:58:32.337Z,11.60
2022-12-29T06:01:00.991Z,11.70
2022-12-29T06:03:29.277Z,11.70
2022-12-29T06:05:57.815Z,11.80
2022-12-29T06:08:27.406Z,11.80
2022-12-29T06:10:55.494Z,11.80
2022-12-29T06:13:23.896Z,11.90
2022-12-29T06:15:52.584Z,12.00
2022-12-29T06:18:20.865Z,12.00
2022-12-29T06:20:49.184Z,11.90
2022-12-29T06:23:17.619Z,11.90
2022-12-29T06:25:48.514Z,11.80
2022-12-29T06:28:17.468Z,11.90
2022-12-29T06:30:46.811Z,11.80
2022-12-29T06:33:14.862Z,11.90
2022-12-29T06:35:44.250Z,11.90
2022-12-29T06:38:12.334Z,11.80
2022-12-29T06:40:40.674Z,11.80
2022-12-29T06:43:10.042Z,11.80
2022-12-29T06:45:40.128Z,11.80
2022-12-29T06:48:08.512Z,11.90
2022-12-29T06:50:37.109Z,11.90
2022-12-29T06:53:05.213Z,11.90
2022-12-29T06:55:33.273Z,11.90
2022-12-29T06:58:02.086Z,11.90
2022-12-29T07:00:31.677Z,11.80
2022-12-29T07:03:00.180Z,11.80
2022-12-29T07:05:28.960Z,11.80
2022-12-29T07:07:57.120Z,11.80
2022-12-29T07:10:25.492Z,11.70
2022-12-29T07:12:53.584Z,11.60
2022-12-29T07:15:21.621Z,11.60
2022-12-29T07:17:51.634Z,11.60
2022-12-29T07:20:24.867Z,11.60
2022-12-29T07:22:54.776Z,11.60
2022-12-29T07:25:22.900Z,11.60
2022-12-29T07:27:50.980Z,11.50
2022-12-29T07:30:19.195Z,11.50
2022-12-29T07:32:47.427Z,11.50
2022-12-29T07:35:17.527Z,11.50
2022-12-29T07:37:45.924Z,11.50
2022-12-29T07:40:14.253Z,11.50
2022-12-29T07:42:42.331Z,11.60
2022-12-29T07:45:11.661Z,11.60
2022-12-29T07:47:39.830Z,11.50
2022-12-29T07:50:08.857Z,11.60
2022-12-29T07:52:38.226Z,11.50
2022-12-29T07:55:07.063Z,11.50
2022-12-29T07:57:35.195Z,11.50
2022-12-29T08:00:04.609Z,11.40
2022-12-29T08:02:32.662Z,11.60
2022-12-29T08:05:00.768Z,11.50
2022-12-29T08:07:29.056Z,11.50
2022-12-29T08:09:58.963Z,11.50
2022-12-29T08:12:27.138Z,11.50
2022-12-29T08:14:55.193Z,11.60
2022-12-29T08:17:23.469Z,11.50
2022-12-29T08:19:51.644Z,11.50
2022-12-29T08:22:19.651Z,11.50
2022-12-29T08:24:47.731Z,11.40
2022-12-29T08:27:20.613Z,11.30
2022-12-29T08:29:49.691Z,11.30
2022-12-29T08:32:18.445Z,11.30
2022-12-29T08:34:46.739Z,11.20
2022-12-29T08:37:14.951Z,11.20
2022-12-29T08:39:43.225Z,11.20
2022-12-29T08:42:11.462Z,11.10
2022-12-29T08:44:40.940Z,11.20
2022-12-29T08:47:09.100Z,11.20
2022-12-29T08:49:37.129Z,11.30
2022-12-29T08:52:05.477Z,11.20
2022-12-29T08:54:33.523Z,11.10
2022-12-29T08:57:01.511Z,11.00
2022-12-29T08:59:29.534Z,10.90
2022-12-29T09:01:59.039Z,10.80
2022-12-29T09:04:28.487Z,10.70
2022-12-29T09:06:56.723Z,10.70
2022-12-29T09:09:24.762Z,10.80
2022-12-29T09:11:52.804Z,10.60
2022-12-29T09:14:22.472Z,10.50
2022-12-29T09:17:10.378Z,10.40
2022-12-29T09:19:39.900Z,10.40
2022-12-29T09:22:08.193Z,10.40
2022-12-29T09:24:36.245Z,10.50
2022-12-29T09:27:04.401Z,10.80
2022-12-29T09:29:32.733Z,11.60
2022-12-29T09:32:00.844Z,12.40
2022-12-29T09:34:28.966Z,12.70
2022-12-29T09:36:58.487Z,12.70
2022-12-29T09:39:26.788Z,12.60
2022-12-29T09:42:03.316Z,12.40
2022-12-29T09:44:43.280Z,12.30
2022-12-29T09:47:20.852Z,12.30
2022-12-29T09:49:51.430Z,12.20
2022-12-29T09:52:26.693Z,12.10
2022-12-29T09:55:03.273Z,12.30
2022-12-29T09:57:38.151Z,12.70
2022-12-29T10:00:13.784Z,12.90
2022-12-29T10:02:44.918Z,13.10
2022-12-29T10:05:26.670Z,13.30
2022-12-29T10:08:05.148Z,13.50
2022-12-29T10:10:40.095Z,13.60
2022-12-29T10:13:23.516Z,13.40
2022-12-29T10:16:01.006Z,13.20
2022-12-29T10:18:45.833Z,13.00
2022-12-29T10:21:24.578Z,12.70
2022-12-29T10:23:55.278Z,12.40
2022-12-29T10:26:29.244Z,12.00
2022-12-29T10:29:01.827Z,11.70
2022-12-29T10:31:36.796Z,11.30
2022-12-29T10:34:17.936Z,10.90
2022-12-29T10:36:50.108Z,10.60
2022-12-29T10:39:25.437Z,10.30
2022-12-29T10:42:00.486Z,10.10
2022-12-29T10:44:31.907Z,10.00
2022-12-29T10:47:05.716Z,10.10
2022-12-29T10:49:36.764Z,10.40
2022-12-29T10:52:06.231Z,10.80
2022-12-29T10:54:41.662Z,11.10
2022-12-29T10:57:13.572Z,11.50
2022-12-29T10:59:41.667Z,12.00
2022-12-29T11:02:28.741Z,12.70
2022-12-29T11:05:04.743Z,13.40
2022-12-29T11:07:33.502Z,14.00
2022-12-29T11:10:22.290Z,14.10
2022-12-29T11:12:59.090Z,13.70
2022-12-29T11:15:27.477Z,13.30
2022-12-29T11:18:00.574Z,13.10
2022-12-29T11:20:32.975Z,12.90
2022-12-29T11:23:02.022Z,12.70
2022-12-29T11:25:31.781Z,12.60
2022-12-29T11:28:02.535Z,12.40
2022-12-29T11:30:32.223Z,12.20
2022-12-29T11:33:04.776Z,12.10
2022-12-29T11:35:37.084Z,11.90
2022-12-29T11:38:06.885Z,11.80
2022-12-29T11:40:41.618Z,11.80
2022-12-29T11:43:21.807Z,11.80
2022-12-29T11:45:50.216Z,11.70
2022-12-29T11:48:22.286Z,11.80
2022-12-29T11:50:55.885Z,11.70
2022-12-29T11:53:27.149Z,11.70
2022-12-29T11:55:59.726Z,11.60
2022-12-29T11:58:33.489Z,11.60
2022-12-29T12:01:05.327Z,11.50
2022-12-29T12:03:37.425Z,11.40
2022-12-29T12:06:08.444Z,11.40
2022-12-29T12:08:41.056Z,11.30
2022-12-29T12:11:14.209Z,11.30
2022-12-29T12:13:50.161Z,11.30
2022-12-29T12:16:20.615Z,11.30
2022-12-29T12:18:53.287Z,11.30
2022-12-29T12:21:27.438Z,11.30
2022-12-29T12:24:19.242Z,11.20
2022-12-29T12:27:00.183Z,11.30
2022-12-29T12:29:36.788Z,11.20
2022-12-29T12:32:15.173Z,11.20
2022-12-29T12:34:45.863Z,11.20
2022-12-29T12:37:42.846Z,11.20
2022-12-29T12:40:30.637Z,11.30
2022-12-29T12:43:20.243Z,11.30
2022-12-29T12:45:55.415Z,11.30
2022-12-29T12:48:41.423Z,11.30
2022-12-29T12:51:20.784Z,11.20
2022-12-29T12:54:01.576Z,11.20
2022-12-29T12:56:47.427Z,11.30
2022-12-29T12:59:39.454Z,11.30
2022-12-29T13:02:31.362Z,11.30
2022-12-29T13:05:26.874Z,11.30
2022-12-29T13:08:08.929Z,11.30
2022-12-29T13:10:48.463Z,11.30
2022-12-29T13:13:50.588Z,11.30
2022-12-29T13:16:31.319Z,11.30
2022-12-29T13:19:03.867Z,11.40
2022-12-29T13:21:56.245Z,11.30
2022-12-29T13:24:34.596Z,11.40
2022-12-29T13:27:11.214Z,11.40
2022-12-29T13:29:48.974Z,11.40
2022-12-29T13:32:29.145Z,11.40
2022-12-29T13:35:11.301Z,11.40
2022-12-29T13:37:49.548Z,11.40
2022-12-29T13:40:21.182Z,11.30
2022-12-29T13:42:49.797Z,11.30
2022-12-29T13:45:20.634Z,11.30
2022-12-29T13:47:53.556Z,11.20
2022-12-29T13:50:24.179Z,11.30
2022-12-29T13:53:00.458Z,11.30
2022-12-29T13:55:31.893Z,11.30
2022-12-29T13:58:06.066Z,11.30
2022-12-29T14:00:43.111Z,11.20
2022-12-29T14:03:30.247Z,11.20
2022-12-29T14:06:17.584Z,11.20
2022-12-29T14:08:46.587Z,11.20
2022-12-29T14:11:18.093Z,11.20
2022-12-29T14:13:48.322Z,11.20
2022-12-29T14:16:32.210Z,11.10
2022-12-29T14:19:13.899Z,11.00
2022-12-29T14:21:43.488Z,11.00
2022-12-29T14:24:46.506Z,11.00
2022-12-29T14:27:46.058Z,11.00
2022-12-29T14:30:59.583Z,10.90
2022-12-29T14:33:30.856Z,10.80
2022-12-29T14:36:21.561Z,10.70
2022-12-29T14:38:50.805Z,10.80
2022-12-29T14:41:32.654Z,10.80
2022-12-29T14:44:04.639Z,10.60
2022-12-29T14:46:57.732Z,10.60
2022-12-29T14:49:27.708Z,10.50
2022-12-29T14:52:08.054Z,10.40
2022-12-29T14:55:02.081Z,10.30
2022-12-29T14:57:35.242Z,10.30
2022-12-29T15:00:18.332Z,10.30
2022-12-29T15:02:51.047Z,10.20
2022-12-29T15:05:33.852Z,10.30
2022-12-29T15:08:05.242Z,10.30
2022-12-29T15:10:44.676Z,10.10
2022-12-29T15:13:18.937Z,10.10
2022-12-29T15:15:46.944Z,10.20
2022-12-29T15:18:23.788Z,10.20
2022-12-29T15:20:53.875Z,10.20
2022-12-29T15:23:23.810Z,10.20
2022-12-29T15:25:56.033Z,10.10
2022-12-29T15:28:25.073Z,10.10
2022-12-29T15:30:55.398Z,10.10
2022-12-29T15:33:25.671Z,10.00
2022-12-29T15:35:55.349Z,10.00
2022-12-29T15:38:33.349Z,9.90
2022-12-29T15:41:07.708Z,10.00
2022-12-29T15:43:50.009Z,9.90
2022-12-29T15:46:19.035Z,9.90
2022-12-29T15:48:47.383Z,9.90
2022-12-29T15:51:22.080Z,10.00
2022-12-29T15:53:54.023Z,10.00
2022-12-29T15:56:22.239Z,10.00
2022-12-29T15:58:53.076Z,10.10
2022-12-29T16:01:26.560Z,10.20
2022-12-29T16:03:55.323Z,10.20
2022-12-29T16:06:32.543Z,10.20
2022-12-29T16:09:04.834Z,10.20
2022-12-29T16:11:37.686Z,10.10
2022-12-29T16:14:12.173Z,10.10
2022-12-29T16:16:42.280Z,10.10
2022-12-29T16:19:16.703Z,10.10
2022-12-29T16:21:45.565Z,10.20
2022-12-29T16:24:19.158Z,10.30
2022-12-29T16:26:53.457Z,10.30
2022-12-29T16:29:23.448Z,10.20
2022-12-29T16:32:00.930Z,10.20
2022-12-29T16:34:33.012Z,10.10
2022-12-29T16:37:02.081Z,10.20
2022-12-29T16:39:34.864Z,10.30
2022-12-29T16:42:03.147Z,10.30
2022-12-29T16:44:32.881Z,10.30
2022-12-29T16:47:17.566Z,10.30
2022-12-29T16:49:51.293Z,10.30
2022-12-29T16:52:23.186Z,10.30
2022-12-29T16:54:56.642Z,10.20
2022-12-29T16:57:30.451Z,10.30
2022-12-29T17:00:01.568Z,10.20
2022-12-29T17:02:31.761Z,10.20
2022-12-29T17:05:00.152Z,10.20
2022-12-29T17:07:29.941Z,10.10
2022-12-29T17:10:02.450Z,10.10
2022-12-29T17:12:32.664Z,10.20
2022-12-29T17:15:03.122Z,10.20
2022-12-29T17:17:35.444Z,10.20
2022-12-29T17:20:07.403Z,10.10
2022-12-29T17:22:35.538Z,10.10
2022-12-29T17:25:05.497Z,10.20
2022-12-29T17:27:39.651Z,10.10
2022-12-29T17:30:13.614Z,10.20
2022-12-29T17:32:42.596Z,10.10
2022-12-29T17:35:16.012Z,10.20
2022-12-29T17:37:44.961Z,10.20
2022-12-29T17:40:17.555Z,10.20
2022-12-29T17:42:47.701Z,10.10
2022-12-29T17:45:18.421Z,10.10
2022-12-29T17:47:47.196Z,10.00
2022-12-29T17:50:17.278Z,10.00
2022-12-29T17:52:47.739Z,9.90
2022-12-29T17:55:19.757Z,9.80
2022-12-29T17:57:48.194Z,9.90
2022-12-29T18:00:18.376Z,9.70
2022-12-29T18:02:47.275Z,9.70
2022-12-29T18:05:21.013Z,9.70
2022-12-29T18:07:49.476Z,9.70
2022-12-29T18:10:19.591Z,9.80
2022-12-29T18:12:49.610Z,9.70
2022-12-29T18:15:27.579Z,9.80
2022-12-29T18:18:00.819Z,9.80
2022-12-29T18:20:32.922Z,9.80
2022-12-29T18:23:01.108Z,9.70
2022-12-29T18:25:37.762Z,9.70
2022-12-29T18:28:06.132Z,9.70
2022-12-29T18:30:34.288Z,9.60
2022-12-29T18:33:02.509Z,9.60
2022-12-29T18:35:38.090Z,9.60
2022-12-29T18:38:06.991Z,9.60
2022-12-29T18:40:39.556Z,9.60
2022-12-29T18:43:08.050Z,9.70
2022-12-29T18:45:36.556Z,9.80
2022-12-29T18:48:05.329Z,9.80
2022-12-29T18:50:33.680Z,9.70
2022-12-29T18:53:04.179Z,9.70
2022-12-29T18:55:33.291Z,9.70
2022-12-29T18:58:02.988Z,9.70
2022-12-29T19:00:31.281Z,9.70
2022-12-29T19:02:59.640Z,9.70
2022-12-29T19:05:30.322Z,9.70
2022-12-29T19:07:59.036Z,9.70
2022-12-29T19:10:28.591Z,9.70
2022-12-29T19:12:56.901Z,9.50
2022-12-29T19:15:28.420Z,9.40
2022-12-29T19:18:32.810Z,9.00
2022-12-29T19:20:48.596Z,8.70
2022-12-29T19:23:18.494Z,8.70
2022-12-29T19:25:47.852Z,8.70
2022-12-29T19:28:19.934Z,8.60
2022-12-29T19:30:52.484Z,8.50
2022-12-29T19:33:22.405Z,8.50
2022-12-29T19:35:50.722Z,8.40
2022-12-29T19:38:19.344Z,8.30
2022-12-29T19:40:50.458Z,8.20
2022-12-29T19:43:19.343Z,8.10
2022-12-29T19:45:49.292Z,8.10
2022-12-29T19:48:20.302Z,8.00
2022-12-29T19:50:48.838Z,7.80
2022-12-29T19:53:17.403Z,8.00
2022-12-29T19:55:46.165Z,7.60
2022-12-29T19:58:15.016Z,7.50
2022-12-29T20:00:44.107Z,7.30
2022-12-29T20:03:13.790Z,7.30
2022-12-29T20:05:42.038Z,7.20
2022-12-29T20:08:10.372Z,7.20
2022-12-29T20:10:38.640Z,7.10
2022-12-29T20:13:07.559Z,6.90
2022-12-29T20:15:35.855Z,7.00
2022-12-29T20:18:13.637Z,7.10
2022-12-29T20:20:44.413Z,7.00
2022-12-29T20:23:12.639Z,7.10
2022-12-29T20:25:45.732Z,7.20
2022-12-29T20:28:17.028Z,7.10
2022-12-29T20:30:45.493Z,7.10
2022-12-29T20:33:13.624Z,7.00
2022-12-29T20:35:43.299Z,7.00
2022-12-29T20:38:11.460Z,7.00
2022-12-29T20:40:46.228Z,7.00
2022-12-29T20:43:16.632Z,7.00
2022-12-29T20:45:45.631Z,7.00
2022-12-29T20:48:13.728Z,7.00
2022-12-29T20:50:43.201Z,6.80
2022-12-29T20:53:12.095Z,6.90
2022-12-29T20:55:41.246Z,6.90
2022-12-29T20:58:26.048Z,6.90
2022-12-29T21:00:55.050Z,7.00
2022-12-29T21:03:23.437Z,6.80
2022-12-29T21:05:53.891Z,6.70
2022-12-29T21:08:22.470Z,6.70
2022-12-29T21:10:51.547Z,6.70
2022-12-29T21:13:19.771Z,6.70
2022-12-29T21:15:48.150Z,6.80
2022-12-29T21:18:16.731Z,6.80
2022-12-29T21:20:44.843Z,6.80
2022-12-29T21:23:14.425Z,6.80
2022-12-29T21:25:45.507Z,6.80
2022-12-29T21:28:13.678Z,6.80
2022-12-29T21:30:43.057Z,6.90
2022-12-29T21:33:11.470Z,7.00
2022-12-29T21:35:40.167Z,7.00
2022-12-29T21:38:08.828Z,7.00
2022-12-29T21:40:40.135Z,7.10
2022-12-29T21:43:08.813Z,7.10
2022-12-29T21:45:36.067Z,7.30
2022-12-29T21:48:24.093Z,7.20
2022-12-29T21:51:12.156Z,7.20
2022-12-29T21:53:41.980Z,7.20
2022-12-29T21:56:13.952Z,7.20
2022-12-29T21:59:01.283Z,7.20
2022-12-29T22:01:48.984Z,7.40
2022-12-29T22:04:36.794Z,7.40
2022-12-29T22:07:23.649Z,7.40
2022-12-29T22:10:09.193Z,7.50
2022-12-29T22:12:56.797Z,7.50
2022-12-29T22:15:25.776Z,7.30
2022-12-29T22:17:55.805Z,7.40
2022-12-29T22:20:25.996Z,7.10
2022-12-29T22:22:54.308Z,7.00
2022-12-29T22:25:22.953Z,7.00
2022-12-29T22:27:58.600Z,7.10
2022-12-29T22:30:27.518Z,6.80
2022-12-29T22:32:57.712Z,7.00
2022-12-29T22:35:26.056Z,6.90
2022-12-29T22:37:54.741Z,6.80
2022-12-29T22:40:24.819Z,6.70
2022-12-29T22:42:54.685Z,6.60
2022-12-29T22:45:22.940Z,6.60
2022-12-29T22:47:51.131Z,6.60
2022-12-29T22:50:20.627Z,6.70
2022-12-29T22:52:48.805Z,6.60
2022-12-29T22:55:17.043Z,6.60
2022-12-29T22:57:45.092Z,6.60
2022-12-29T23:00:15.341Z,6.70
2022-12-29T23:02:43.494Z,6.80
2022-12-29T23:05:11.805Z,6.90
2022-12-29T23:07:39.918Z,6.90
2022-12-29T23:10:08.835Z,6.80
2022-12-29T23:12:37.046Z,6.70
2022-12-29T23:15:05.869Z,6.70
2022-12-29T23:17:35.438Z,6.70
2022-12-29T23:20:03.894Z,6.70
2022-12-29T23:22:32.015Z,6.50
2022-12-29T23:25:00.428Z,6.50
2022-12-29T23:27:28.673Z,6.60
2022-12-29T23:29:56.836Z,6.50
2022-12-29T23:32:25.129Z,6.40
2022-12-29T23:34:54.645Z,6.40
2022-12-29T23:37:22.798Z,6.70
2022-12-29T23:39:50.795Z,6.50
2022-12-29T23:42:18.828Z,6.70
2022-12-29T23:44:46.792Z,6.70
2022-12-29T23:47:14.889Z,6.80
2022-12-29T23:49:42.897Z,6.90
2022-12-29T23:52:12.270Z,7.00
2022-12-29T23:54:40.291Z,7.00
2022-12-29T23:57:08.312Z,7.10
2022-12-29T23:59:36.427Z,7.30
